Latest Coastal Weather Observations for Hobart

IDT60701

Issued at 4:35 am EDT Thursday 27 November 2014 (issued every 10 minutes, with the page automatically refreshed every 10 minutes)

About coastal observations | Map of coastal stations | Coastal observations for TAS | Marine services | Other Formats
Station Details ID: 094029 Name: HOBART (ELLERSLIE ROAD) Lat: -42.89 Lon: 147.33 Height: 50.5 m
Data from the previous 72 hours. | See also: Recent months at Hobart
Date/Time
EDT
Temp

°C
Wind Pressure Rain
since 9am
mm
Weather Cloud Vis
km
Sea
Height
m
Swell
Dir
 
Speed
knots
Gust
knots
hPa Trend Height
m
Period
s
Dir
27/04:30am 11.0 WSW 12 18 1021.2 - 0.2 - - - - - - -
27/04:00am 11.1 WSW 11 17 1020.9 - 0.2 - - - - - - -
27/03:30am 11.1 WSW 9 15 1020.8 - 0.2 - - - - - - -
27/03:00am 11.0 WSW 6 12 1020.7 - 0.2 - - - - - - -
27/02:30am 11.0 SW 9 13 1021.0 - 0.2 - - - - - - -
27/02:00am 11.3 SW 6 10 1021.0 - 0.2 - - - - - - -
27/01:30am 11.4 WSW 9 13 1021.0 - 0.2 - - - - - - -
27/01:00am 11.2 WNW 5 12 1021.0 - 0.2 - - - - - - -
27/12:30am 11.3 SW 5 10 1021.1 - 0.2 - - - - - - -
27/12:00am 11.7 W 6 11 1021.2 - 0.2 - - - - - - -
 
Date/Time
EDT
Temp

°C
Wind Pressure Rain
since 9am
mm
Weather Cloud Vis
km
Sea
Height
m
Swell
Dir
 
Speed
knots
Gust
knots
hPa Trend Height
m
Period
s
Dir
26/11:30pm 11.6 W 6 11 1021.1 - 0.2 - - - - - - -
26/11:00pm 11.7 S 2 5 1021.1 - 0.2 - - - - - - -
26/10:30pm 11.9 W 6 11 1020.9 - 0.2 - - - - - - -
26/10:00pm 12.2 NW 6 11 1020.7 - 0.2 - - - - - - -
26/09:30pm 12.3 W 6 11 1020.3 - 0.2 - - - - - - -
26/09:00pm 12.4 S 5 13 1019.9 - 0.2 - - - - - - -
26/08:30pm 12.8 S 6 11 1019.6 - 0.2 - - - - - - -
26/08:00pm 12.9 SW 8 11 1019.1 - 0.2 - - - - - - -
26/07:30pm 13.7 SW 8 12 1018.8 - 0.2 - - - - - - -
26/07:00pm 13.9 SW 9 13 1018.2 - 0.2 - - - - - - -
26/06:30pm 14.6 SSW 10 15 1017.9 - 0.2 - - - - - - -
26/06:00pm 15.7 SW 10 16 1017.3 - 0.2 - - - - - - -
26/05:30pm 15.4 SW 11 20 1017.3 - 0.2 - - - - - - -
26/05:00pm 15.3 SW 12 20 1017.0 - 0.2 - - - - - - -
26/04:30pm 16.7 WSW 13 19 1016.7 - 0.2 - - - - - - -
26/04:00pm 16.0 SW 15 22 1016.4 - 0.2 - - - - - - -
26/03:30pm 16.6 SW 10 15 1016.3 - 0.0 - - - - - - -
26/03:00pm 15.5 SW 9 21 1016.2 - 0.0 - - - - - - -
26/02:47pm 14.8 WSW 15 25 1016.2 - 0.0 - - - - - - -
26/02:30pm 17.6 W 9 17 1015.9 - 0.0 - - - - - - -
26/02:00pm 14.1 SSW 15 23 1015.8 - 0.0 - - - - - - -
26/01:30pm 16.3 SW 13 20 1015.6 - 0.0 - - - - - - -
26/01:00pm 15.5 WSW 11 21 1015.6 - 0.0 - - - - - - -
26/12:30pm 15.8 SW 16 25 1015.1 - 0.0 - - - - - - -
26/12:12pm 16.0 W 18 28 1015.1 - 0.0 - - - - - - -
26/12:00pm 16.1 SW 11 16 1015.1 - 0.0 - - - - - - -
26/11:30am 14.8 WSW 12 20 1014.8 - 0.0 - - - - - - -
26/11:01am 15.1 WSW 15 25 1014.5 - 0.0 - - - - - - -
26/11:00am 15.4 WSW 14 21 1014.5 - 0.0 - - - - - - -
26/10:30am 14.3 W 10 19 1014.3 - 0.0 - - - - - - -
26/10:06am 13.4 WSW 15 25 1014.0 - 0.0 - - - - - - -
26/10:00am 13.7 WSW 14 21 1013.7 - 0.0 - - - - - - -
26/09:32am 13.6 SW 15 25 1013.2 - 0.0 - - - - - - -
26/09:30am 13.7 SW 13 25 1013.2 - 0.0 - - - - - - -
26/09:00am 13.5 SSW 16 26 1012.6 - 0.2 - - - - - - -
26/08:58am 13.5 SSW 15 26 1012.6 - 0.2 - - - - - - -
26/08:56am 13.3 SSW 19 26 1012.5 - 0.2 - - - - - - -
26/08:30am 13.1 W 10 13 1012.4 - 0.2 - - - - - - -
26/08:00am 12.7 ENE 5 13 1011.9 - 0.2 - - - - - - -
26/07:30am 12.6 S 7 12 1011.6 - 0.2 - - - - - - -
26/07:00am 12.6 NNE 4 14 1011.3 - 0.2 - - - - - - -
26/06:30am 12.9 NNE 6 13 1010.5 - 0.2 - - - - - - -
26/06:00am 12.5 NE 5 9 1010.3 - 0.2 - - - - - - -
26/05:34am 12.7 W 17 28 1009.6 - 0.2 - - - - - - -
26/05:32am 12.8 W 21 28 1009.6 - 0.2 - - - - - - -
26/05:30am 12.5 WSW 6 17 1009.5 - 0.2 - - - - - - -
26/05:00am 12.4 N 4 13 1009.1 - 0.2 - - - - - - -
26/04:30am 12.2 NNE 5 8 1008.6 - 0.2 - - - - - - -
26/04:00am 12.3 NNW 8 14 1008.6 - 0.2 - - - - - - -
26/03:30am 11.8 ENE 4 7 1008.4 - 0.2 - - - - - - -
26/03:00am 12.7 SE 6 10 1008.3 - 0.2 - - - - - - -
26/02:30am 12.4 NW 7 10 1008.3 - 0.2 - - - - - - -
26/02:00am 12.4 NNW 12 19 1008.3 - 0.2 - - - - - - -
26/01:30am 12.2 NNW 16 22 1008.1 - 0.2 - - - - - - -
26/01:00am 12.3 N 14 21 1008.5 - 0.2 - - - - - - -
26/12:30am 12.2 NNW 14 19 1009.0 - 0.2 - - - - - - -
26/12:00am 12.3 N 13 23 1009.4 - 0.2 - - - - - - -
 
Date/Time
EDT
Temp

°C
Wind Pressure Rain
since 9am
mm
Weather Cloud Vis
km
Sea
Height
m
Swell
Dir
 
Speed
knots
Gust
knots
hPa Trend Height
m
Period
s
Dir
25/11:49pm 12.4 NNW 16 30 1009.6 - 0.2 - - - - - - -
25/11:30pm 12.4 NNW 13 19 1009.9 - 0.2 - - - - - - -
25/11:00pm 12.4 NNW 12 21 1010.3 - 0.2 - - - - - - -
25/10:30pm 12.4 NNW 11 18 1010.6 - 0.2 - - - - - - -
25/10:00pm 12.5 NNW 11 16 1011.0 - 0.2 - - - - - - -
25/09:30pm 12.8 NNW 12 19 1010.9 - 0.2 - - - - - - -
25/09:00pm 12.8 NNW 11 17 1010.8 - 0.2 - - - - - - -
25/08:30pm 13.0 NNW 10 17 1010.7 - 0.2 - - - - - - -
25/08:00pm 13.4 NNW 11 20 1010.6 - 0.2 - - - - - - -
25/07:30pm 13.9 NNW 13 21 1010.3 - 0.2 - - - - - - -
25/07:00pm 14.1 NW 13 31 1010.0 - 0.2 - - - - - - -
25/06:45pm 14.0 NW 15 26 1009.9 - 0.2 - - - - - - -
25/06:30pm 13.7 WNW 10 18 1009.9 - 0.2 - - - - - - -
25/06:00pm 14.4 N 16 21 1009.0 - 0.2 - - - - - - -
25/05:36pm 16.0 NW 17 27 1008.9 - 0.2 - - - - - - -
25/05:30pm 16.1 NW 15 21 1009.3 - 0.2 - - - - - - -
25/05:06pm 15.0 NNW 16 27 1008.9 - 0.2 - - - - - - -
25/05:00pm 15.4 NNW 16 23 1008.9 - 0.2 - - - - - - -
25/04:30pm 14.8 NW 19 35 1008.5 - 0.2 - - - - - - -
25/04:01pm 15.7 NNW 18 28 1008.0 - 0.2 - - - - - - -
25/04:00pm 15.5 NNW 19 28 1008.0 - 0.2 - - - - - - -
25/03:32pm 16.2 N 18 28 1007.5 - 0.2 - - - - - - -
25/03:30pm 16.4 N 17 25 1007.6 - 0.2 - - - - - - -
25/03:17pm 16.6 NNW 15 26 1007.7 - 0.2 - - - - - - -
25/03:00pm 17.6 NW 14 21 1007.5 - 0.2 - - - - - - -
25/02:30pm 15.5 NNW 19 23 1007.4 - 0.2 - - - - - - -
25/02:00pm 16.5 WSW 9 18 1007.0 - 0.2 - - - - - - -
25/01:30pm 16.8 W 5 10 1006.7 - 0.2 - - - - - - -
25/01:00pm 18.8 W 13 22 1006.3 - 0.2 - - - - - - -
25/12:30pm 18.0 W 19 31 1006.3 - 0.2 - - - - - - -
25/12:02pm 17.5 WNW 16 26 1006.3 - 0.2 - - - - - - -
25/12:00pm 17.9 W 15 23 1006.3 - 0.2 - - - - - - -
25/11:30am 16.0 W 7 16 1006.3 - 0.2 - - - - - - -
25/11:00am 15.9 W 6 15 1006.1 - 0.2 - - - - - - -
25/10:30am 14.4 ESE 10 17 1005.7 - 0.2 - - - - - - -
25/10:00am 14.4 WNW 7 14 1005.9 - 0.0 - - - - - - -
25/09:30am 14.1 ESE 15 18 1005.1 - 0.0 - - - - - - -
25/09:00am 13.8 SSE 7 13 1004.9 - 2.8 - - - - - - -
25/08:30am 13.6 ESE 7 11 1004.5 - 2.8 - - - - - - -
25/08:00am 13.3 SSE 7 13 1004.2 - 2.8 - - - - - - -
25/07:34am 13.4 WSW 15 25 1003.2 - 2.8 - - - - - - -
25/07:30am 13.2 S 6 16 1003.2 - 2.8 - - - - - - -
25/07:00am 13.2 WNW 6 11 1003.0 - 2.8 - - - - - - -
25/06:55am 13.3 W 19 30 1002.9 - 2.8 - - - - - - -
25/06:30am 13.2 N 7 15 1002.7 - 2.8 - - - - - - -
25/06:05am 13.3 WNW 17 27 1001.6 - 2.8 - - - - - - -
25/06:00am 13.1 SSW 7 15 1001.9 - 2.8 - - - - - - -
25/05:30am 12.5 ENE 7 11 1001.2 - 2.8 - - - - - - -
25/05:00am 13.0 NW 5 11 1001.1 - 2.8 - - - - - - -
25/04:30am 12.9 NW 8 17 1000.7 - 2.8 - - - - - - -
25/04:00am 13.0 NNW 9 17 1000.8 - 2.8 - - - - - - -
25/03:55am 13.0 WNW 15 37 1000.7 - 2.8 - - - - - - -
25/03:30am 11.7 N 6 11 1000.9 - 2.8 - - - - - - -
25/03:00am 11.6 N 10 16 1000.9 - 2.8 - - - - - - -
25/02:30am 11.6 N 12 20 1001.1 - 2.8 - - - - - - -
25/02:00am 12.0 N 15 26 1001.1 - 2.8 - - - - - - -
25/01:41am 12.1 NNW 15 27 1000.4 - 2.8 - - - - - - -
25/01:30am 11.9 N 13 22 1000.4 - 2.8 - - - - - - -
25/01:00am 11.5 N 12 23 1000.9 - 2.8 - - - - - - -
25/12:30am 11.7 N 12 22 1001.5 - 2.8 - - - - - - -
25/12:00am 11.7 N 10 17 1001.8 - 2.8 - - - - - - -
 
Date/Time
EDT
Temp

°C
Wind Pressure Rain
since 9am
mm
Weather Cloud Vis
km
Sea
Height
m
Swell
Dir
 
Speed
knots
Gust
knots
hPa Trend Height
m
Period
s
Dir
24/11:30pm 12.0 N 12 18 1002.1 - 2.8 - - - - - - -
24/11:09pm 12.2 NW 15 25 1002.2 - 2.8 - - - - - - -
24/11:00pm 12.5 NW 17 26 1002.2 - 2.8 - - - - - - -
24/10:50pm 12.5 NW 15 28 1002.4 - 2.8 - - - - - - -
24/10:30pm 12.5 NNW 12 19 1002.6 - 2.8 - - - - - - -
24/10:00pm 12.9 NNW 15 21 1002.3 - 2.8 - - - - - - -
24/09:30pm 13.6 NNW 14 19 1002.2 - 2.8 - - - - - - -
24/09:00pm 14.1 W 7 11 1001.9 - 2.8 - - - - - - -
24/08:30pm 14.4 NNW 11 15 1001.5 - 2.8 - - - - - - -
24/08:00pm 14.5 N 12 17 1001.4 - 2.8 - - - - - - -
24/07:30pm 14.3 ENE 4 9 1001.5 - 2.8 - - - - - - -
24/07:00pm 14.2 WSW 4 7 1001.6 - 2.8 - - - - - - -
24/06:30pm 14.1 NW 5 8 1001.4 - 2.8 - - - - - - -
24/06:00pm 14.1 NNW 7 11 1001.6 - 2.8 Rain - - - - - -
24/05:30pm 14.4 N 4 7 1001.7 - 2.6 - - - - - - -
24/05:00pm 14.4 N 4 6 1002.1 - 2.4 - - - - - - -
24/04:30pm 14.4 N 6 9 1002.6 - 2.2 - - - - - - -
24/04:00pm 14.7 NW 7 11 1003.2 - 1.0 - - - - - - -
24/03:30pm 15.7 N 6 9 1002.9 - 0.4 - - - - - - -
24/03:00pm 16.2 N 7 11 1003.1 - 0.4 - - - - - - -
24/02:30pm 15.6 NNW 9 13 1004.0 - 0.4 - - - - - - -
24/02:00pm 15.8 N 8 13 1004.7 - 0.4 - - - - - - -
24/01:30pm 15.8 N 9 11 1005.2 - 0.4 - - - - - - -
24/01:00pm 15.4 NNW 6 10 1005.3 - 0.4 - - - - - - -
24/12:30pm 14.7 NNW 13 19 1005.8 - 0.4 - - - - - - -
24/12:00pm 14.1 N 12 17 1005.9 - 0.4 - - - - - - -
24/11:30am 13.9 NNW 12 17 1006.7 - 0.4 - - - - - - -
24/11:00am 12.9 N 13 19 1007.4 - 0.4 - - - - - - -
24/10:30am 13.0 NNW 8 11 1008.2 - 0.2 - - - - - - -
24/10:00am 13.0 N 6 11 1008.1 - 0.0 - - - - - - -
24/09:30am 13.2 NNW 9 13 1008.7 - 0.0 - - - - - - -
24/09:00am 12.8 NW 9 12 1008.2 - 0.0 - - - - - - -
24/08:30am 12.8 NNW 13 18 1008.7 - 0.0 - - - - - - -
24/08:00am 12.9 NNE 7 9 1008.8 - 0.0 - - - - - - -
24/07:30am 12.4 N 7 11 1008.6 - 0.0 - - - - - - -
24/07:00am 12.1 E 3 6 1008.6 - 0.0 - - - - - - -
24/06:30am 12.3 NW 7 11 1008.8 - 0.0 - - - - - - -
24/06:00am 11.6 NNE 4 7 1008.6 - 0.0 - - - - - - -
24/05:30am 10.4 SSE 5 7 1008.8 - 0.0 - - - - - - -
24/05:00am 10.9 N 9 14 1009.3 - 0.0 - - - - - - -

Other Formats:

Comma delimited format used in spreadsheet applications
http://www.bom.gov.au/fwo/IDT60701/IDT60701.94970.axf

JavaScript Object Notation format (JSON) in row-major order
http://www.bom.gov.au/fwo/IDT60701/IDT60701.94970.json